sensor_id;sensor_type;location;lat;lon;timestamp;pressure;altitude;pressure_sealevel;temperature;humidity
73341;BME280;61578;52.002;5.468;2022-11-20T00:00:09;101379.22;;;-1.84;80.73
73341;BME280;61578;52.002;5.468;2022-11-20T00:00:40;101380.97;;;-1.90;80.50
73341;BME280;61578;52.002;5.468;2022-11-20T00:01:23;101374.03;;;-1.89;80.89
73341;BME280;61578;52.002;5.468;2022-11-20T00:01:55;101371.41;;;-1.91;80.66
73341;BME280;61578;52.002;5.468;2022-11-20T00:02:25;101385.28;;;-1.92;80.53
73341;BME280;61578;52.002;5.468;2022-11-20T00:02:56;101379.22;;;-1.89;81.19
73341;BME280;61578;52.002;5.468;2022-11-20T00:03:26;101369.69;;;-1.90;81.07
73341;BME280;61578;52.002;5.468;2022-11-20T00:03:58;101377.50;;;-1.90;80.73
73341;BME280;61578;52.002;5.468;2022-11-20T00:04:29;101380.97;;;-1.90;80.91
73341;BME280;61578;52.002;5.468;2022-11-20T00:04:59;101373.16;;;-1.90;80.71
73341;BME280;61578;52.002;5.468;2022-11-20T00:05:32;101361.06;;;-2.00;80.71
73341;BME280;61578;52.002;5.468;2022-11-20T00:06:12;101380.13;;;-1.98;80.80
73341;BME280;61578;52.002;5.468;2022-11-20T00:06:46;101352.44;;;-2.05;81.41
73341;BME280;61578;52.002;5.468;2022-11-20T00:07:17;101370.59;;;-1.97;81.18
73341;BME280;61578;52.002;5.468;2022-11-20T00:07:47;101373.19;;;-1.99;81.04
73341;BME280;61578;52.002;5.468;2022-11-20T00:08:17;101368.88;;;-2.01;81.11
73341;BME280;61578;52.002;5.468;2022-11-20T00:08:49;101368.00;;;-2.00;81.40
73341;BME280;61578;52.002;5.468;2022-11-20T00:09:19;101318.69;;;-2.31;81.06
73341;BME280;61578;52.002;5.468;2022-11-20T00:09:50;101364.56;;;-2.05;81.29
73341;BME280;61578;52.002;5.468;2022-11-20T00:10:21;101334.25;;;-2.23;81.44
73341;BME280;61578;52.002;5.468;2022-11-20T00:10:51;101373.25;;;-2.06;81.21
73341;BME280;61578;52.002;5.468;2022-11-20T00:11:40;101371.47;;;-2.03;81.32
73341;BME280;61578;52.002;5.468;2022-11-20T00:12:11;101368.91;;;-2.04;80.94
73341;BME280;61578;52.002;5.468;2022-11-20T00:12:41;101366.31;;;-2.10;80.76
73341;BME280;61578;52.002;5.468;2022-11-20T00:13:12;101375.84;;;-2.06;80.86
73341;BME280;61578;52.002;5.468;2022-11-20T00:13:47;101327.38;;;-2.33;80.90
73341;BME280;61578;52.002;5.468;2022-11-20T00:14:20;101363.69;;;-2.12;80.97
73341;BME280;61578;52.002;5.468;2022-11-20T00:14:50;101379.31;;;-2.09;81.42
73341;BME280;61578;52.002;5.468;2022-11-20T00:15:21;101366.31;;;-2.07;81.81
73341;BME280;61578;52.002;5.468;2022-11-20T00:15:57;101363.69;;;-2.10;81.73
73341;BME280;61578;52.002;5.468;2022-11-20T00:16:31;101368.03;;;-2.08;81.66
73341;BME280;61578;52.002;5.468;2022-11-20T00:17:02;101361.97;;;-2.08;81.24
73341;BME280;61578;52.002;5.468;2022-11-20T00:17:33;101360.22;;;-2.12;81.77
73341;BME280;61578;52.002;5.468;2022-11-20T00:18:03;101358.50;;;-2.09;81.75
73341;BME280;61578;52.002;5.468;2022-11-20T00:18:35;101351.56;;;-2.11;82.08
73341;BME280;61578;52.002;5.468;2022-11-20T00:19:05;101354.16;;;-2.10;81.72
73341;BME280;61578;52.002;5.468;2022-11-20T00:19:36;101358.50;;;-2.07;81.62
73341;BME280;61578;52.002;5.468;2022-11-20T00:20:07;101357.63;;;-2.06;81.90
73341;BME280;61578;52.002;5.468;2022-11-20T00:20:38;101360.22;;;-2.11;81.41
73341;BME280;61578;52.002;5.468;2022-11-20T00:21:50;101368.91;;;-2.07;81.40
73341;BME280;61578;52.002;5.468;2022-11-20T00:22:25;101365.44;;;-2.09;81.54
73341;BME280;61578;52.002;5.468;2022-11-20T00:22:55;101356.75;;;-2.13;81.38
73341;BME280;61578;52.002;5.468;2022-11-20T00:23:26;101337.78;;;-2.26;81.50
73341;BME280;61578;52.002;5.468;2022-11-20T00:23:57;101309.22;;;-2.42;81.51
73341;BME280;61578;52.002;5.468;2022-11-20T00:24:28;101356.81;;;-2.16;81.88
73341;BME280;61578;52.002;5.468;2022-11-20T00:24:58;101370.63;;;-2.11;81.62
73341;BME280;61578;52.002;5.468;2022-11-20T00:25:29;101365.47;;;-2.15;81.58
73341;BME280;61578;52.002;5.468;2022-11-20T00:26:08;101373.28;;;-2.17;82.09
73341;BME280;61578;52.002;5.468;2022-11-20T00:26:40;101368.06;;;-2.20;82.14
73341;BME280;61578;52.002;5.468;2022-11-20T00:27:11;101367.22;;;-2.14;82.40
73341;BME280;61578;52.002;5.468;2022-11-20T00:27:41;101362.88;;;-2.17;81.91
73341;BME280;61578;52.002;5.468;2022-11-20T00:28:12;101304.03;;;-2.51;81.73
73341;BME280;61578;52.002;5.468;2022-11-20T00:28:44;101368.94;;;-2.18;81.96
73341;BME280;61578;52.002;5.468;2022-11-20T00:29:18;101371.50;;;-2.13;81.99
73341;BME280;61578;52.002;5.468;2022-11-20T00:29:49;101371.53;;;-2.15;81.92
73341;BME280;61578;52.002;5.468;2022-11-20T00:30:19;101365.47;;;-2.17;81.77
73341;BME280;61578;52.002;5.468;2022-11-20T00:30:50;101364.59;;;-2.14;82.03
73341;BME280;61578;52.002;5.468;2022-11-20T00:31:21;101367.16;;;-2.13;81.64
73341;BME280;61578;52.002;5.468;2022-11-20T00:31:52;101369.81;;;-2.14;82.04
73341;BME280;61578;52.002;5.468;2022-11-20T00:32:23;101367.16;;;-2.13;82.25
73341;BME280;61578;52.002;5.468;2022-11-20T00:32:56;101360.28;;;-2.23;82.10
73341;BME280;61578;52.002;5.468;2022-11-20T00:33:28;101365.47;;;-2.18;81.98
73341;BME280;61578;52.002;5.468;2022-11-20T00:33:59;101375.88;;;-2.14;81.99
73341;BME280;61578;52.002;5.468;2022-11-20T00:34:29;101353.34;;;-2.19;81.86
73341;BME280;61578;52.002;5.468;2022-11-20T00:35:00;101370.69;;;-2.14;82.27
73341;BME280;61578;52.002;5.468;2022-11-20T00:35:31;101368.06;;;-2.15;82.06
73341;BME280;61578;52.002;5.468;2022-11-20T00:36:04;101374.16;;;-2.16;81.77
73341;BME280;61578;52.002;5.468;2022-11-20T00:36:36;101379.34;;;-2.16;81.96
73341;BME280;61578;52.002;5.468;2022-11-20T00:37:06;101357.66;;;-2.20;81.87
73341;BME280;61578;52.002;5.468;2022-11-20T00:37:37;101368.06;;;-2.14;82.18
73341;BME280;61578;52.002;5.468;2022-11-20T00:38:07;101375.88;;;-2.15;82.06
73341;BME280;61578;52.002;5.468;2022-11-20T00:38:38;101359.41;;;-2.20;82.00
73341;BME280;61578;52.002;5.468;2022-11-20T00:39:08;101318.75;;;-2.41;81.94
73341;BME280;61578;52.002;5.468;2022-11-20T00:39:38;101366.34;;;-2.16;82.04
73341;BME280;61578;52.002;5.468;2022-11-20T00:40:09;101359.41;;;-2.16;81.85
73341;BME280;61578;52.002;5.468;2022-11-20T00:40:40;101348.16;;;-2.26;81.68
73341;BME280;61578;52.002;5.468;2022-11-20T00:41:14;101371.53;;;-2.16;81.93
73341;BME280;61578;52.002;5.468;2022-11-20T00:41:45;101364.59;;;-2.20;81.84
73341;BME280;61578;52.002;5.468;2022-11-20T00:42:16;101373.28;;;-2.17;81.67
73341;BME280;61578;52.002;5.468;2022-11-20T00:42:46;101365.47;;;-2.22;82.32
73341;BME280;61578;52.002;5.468;2022-11-20T00:43:17;101374.16;;;-2.19;81.86
73341;BME280;61578;52.002;5.468;2022-11-20T00:43:48;101360.28;;;-2.23;81.67
73341;BME280;61578;52.002;5.468;2022-11-20T00:44:18;101381.94;;;-2.19;81.35
73341;BME280;61578;52.002;5.468;2022-11-20T00:44:49;101367.22;;;-2.20;81.37
73341;BME280;61578;52.002;5.468;2022-11-20T00:45:19;101308.38;;;-2.53;81.44
73341;BME280;61578;52.002;5.468;2022-11-20T00:45:50;101358.56;;;-2.24;81.49
73341;BME280;61578;52.002;5.468;2022-11-20T00:46:23;101361.16;;;-2.24;81.49
73341;BME280;61578;52.002;5.468;2022-11-20T00:46:56;101353.38;;;-2.26;81.51
73341;BME280;61578;52.002;5.468;2022-11-20T00:47:26;101357.72;;;-2.26;81.46
73341;BME280;61578;52.002;5.468;2022-11-20T00:47:57;101350.78;;;-2.27;81.41
73341;BME280;61578;52.002;5.468;2022-11-20T00:48:28;101357.72;;;-2.31;81.15
73341;BME280;61578;52.002;5.468;2022-11-20T00:48:58;101358.56;;;-2.32;81.27
73341;BME280;61578;52.002;5.468;2022-11-20T00:49:29;101344.75;;;-2.38;81.16
73341;BME280;61578;52.002;5.468;2022-11-20T00:49:59;101346.47;;;-2.42;81.62
73341;BME280;61578;52.002;5.468;2022-11-20T00:50:30;101347.34;;;-2.38;81.86
73341;BME280;61578;52.002;5.468;2022-11-20T00:51:00;101356.00;;;-2.36;81.52
73341;BME280;61578;52.002;5.468;2022-11-20T00:51:31;101356.00;;;-2.39;81.08
73341;BME280;61578;52.002;5.468;2022-11-20T00:52:01;101357.75;;;-2.41;81.58
73341;BME280;61578;52.002;5.468;2022-11-20T00:52:32;101357.75;;;-2.43;81.50
73341;BME280;61578;52.002;5.468;2022-11-20T00:53:02;101356.88;;;-2.42;82.22
73341;BME280;61578;52.002;5.468;2022-11-20T00:53:33;101350.81;;;-2.41;82.13
73341;BME280;61578;52.002;5.468;2022-11-20T00:54:03;101355.16;;;-2.44;82.22
73341;BME280;61578;52.002;5.468;2022-11-20T00:54:34;101352.53;;;-2.43;81.91
73341;BME280;61578;52.002;5.468;2022-11-20T00:55:05;101311.91;;;-2.68;81.88
73341;BME280;61578;52.002;5.468;2022-11-20T00:55:36;101358.59;;;-2.44;82.13
73341;BME280;61578;52.002;5.468;2022-11-20T00:56:10;101317.09;;;-2.70;81.63
73341;BME280;61578;52.002;5.468;2022-11-20T00:56:42;101327.47;;;-2.56;82.13
73341;BME280;61578;52.002;5.468;2022-11-20T00:57:13;101343.03;;;-2.53;81.88
73341;BME280;61578;52.002;5.468;2022-11-20T00:57:44;101355.16;;;-2.47;82.16
73341;BME280;61578;52.002;5.468;2022-11-20T00:58:14;101345.63;;;-2.51;82.08
73341;BME280;61578;52.002;5.468;2022-11-20T00:58:47;101354.31;;;-2.49;82.30
73341;BME280;61578;52.002;5.468;2022-11-20T00:59:18;101343.91;;;-2.51;82.09
73341;BME280;61578;52.002;5.468;2022-11-20T00:59:49;101337.88;;;-2.54;81.74
73341;BME280;61578;52.002;5.468;2022-11-20T01:00:19;101348.22;;;-2.50;82.08
73341;BME280;61578;52.002;5.468;2022-11-20T01:00:50;101320.53;;;-2.63;82.25
73341;BME280;61578;52.002;5.468;2022-11-20T01:01:24;101293.72;;;-2.82;81.87
73341;BME280;61578;52.002;5.468;2022-11-20T01:01:55;101346.50;;;-2.52;81.68
73341;BME280;61578;52.002;5.468;2022-11-20T01:02:26;101339.59;;;-2.56;81.98
73341;BME280;61578;52.002;5.468;2022-11-20T01:02:56;101340.47;;;-2.59;82.12
73341;BME280;61578;52.002;5.468;2022-11-20T01:03:27;101347.38;;;-2.53;82.15
73341;BME280;61578;52.002;5.468;2022-11-20T01:03:59;101350.84;;;-2.53;82.14
73341;BME280;61578;52.002;5.468;2022-11-20T01:04:30;101297.19;;;-2.81;81.88
73341;BME280;61578;52.002;5.468;2022-11-20T01:05:01;101342.16;;;-2.53;81.96
73341;BME280;61578;52.002;5.468;2022-11-20T01:05:34;101342.19;;;-2.56;82.20
73341;BME280;61578;52.002;5.468;2022-11-20T01:06:10;101337.88;;;-2.56;82.21
73341;BME280;61578;52.002;5.468;2022-11-20T01:06:49;101340.47;;;-2.57;82.41
73341;BME280;61578;52.002;5.468;2022-11-20T01:07:20;101324.03;;;-2.69;82.56
73341;BME280;61578;52.002;5.468;2022-11-20T01:07:50;101343.94;;;-2.63;82.40
73341;BME280;61578;52.002;5.468;2022-11-20T01:08:20;101340.47;;;-2.57;82.67
73341;BME280;61578;52.002;5.468;2022-11-20T01:08:54;101338.72;;;-2.58;82.48
73341;BME280;61578;52.002;5.468;2022-11-20T01:09:26;101335.25;;;-2.64;82.47
73341;BME280;61578;52.002;5.468;2022-11-20T01:09:56;101349.13;;;-2.58;82.75
73341;BME280;61578;52.002;5.468;2022-11-20T01:10:27;101341.34;;;-2.60;82.44
73341;BME280;61578;52.002;5.468;2022-11-20T01:11:06;101341.34;;;-2.60;83.02
73341;BME280;61578;52.002;5.468;2022-11-20T01:11:44;101346.53;;;-2.60;82.75
73341;BME280;61578;52.002;5.468;2022-11-20T01:12:15;101345.66;;;-2.61;82.77
73341;BME280;61578;52.002;5.468;2022-11-20T01:12:45;101343.06;;;-2.64;82.76
73341;BME280;61578;52.002;5.468;2022-11-20T01:13:37;101323.16;;;-2.69;82.35
73341;BME280;61578;52.002;5.468;2022-11-20T01:14:12;101349.13;;;-2.65;82.26
73341;BME280;61578;52.002;5.468;2022-11-20T01:14:44;101338.75;;;-2.66;81.98
73341;BME280;61578;52.002;5.468;2022-11-20T01:15:14;101350.03;;;-2.67;82.13
73341;BME280;61578;52.002;5.468;2022-11-20T01:15:45;101343.94;;;-2.68;82.82
73341;BME280;61578;52.002;5.468;2022-11-20T01:16:21;101340.50;;;-2.67;82.40
73341;BME280;61578;52.002;5.468;2022-11-20T01:16:52;101340.50;;;-2.68;82.28
73341;BME280;61578;52.002;5.468;2022-11-20T01:17:23;101335.28;;;-2.73;82.14
73341;BME280;61578;52.002;5.468;2022-11-20T01:17:53;101343.94;;;-2.69;82.04
73341;BME280;61578;52.002;5.468;2022-11-20T01:18:23;101341.34;;;-2.69;82.36
73341;BME280;61578;52.002;5.468;2022-11-20T01:18:57;101340.47;;;-2.70;82.52
73341;BME280;61578;52.002;5.468;2022-11-20T01:19:29;101340.47;;;-2.70;82.40
73341;BME280;61578;52.002;5.468;2022-11-20T01:20:00;101345.69;;;-2.71;82.38
73341;BME280;61578;52.002;5.468;2022-11-20T01:20:35;101350.00;;;-2.70;82.55
73341;BME280;61578;52.002;5.468;2022-11-20T01:21:10;101350.88;;;-2.71;82.52
73341;BME280;61578;52.002;5.468;2022-11-20T01:21:43;101348.28;;;-2.71;82.51
73341;BME280;61578;52.002;5.468;2022-11-20T01:22:15;101343.09;;;-2.77;82.65
73341;BME280;61578;52.002;5.468;2022-11-20T01:22:46;101349.16;;;-2.74;82.51
73341;BME280;61578;52.002;5.468;2022-11-20T01:23:16;101354.34;;;-2.74;82.51
73341;BME280;61578;52.002;5.468;2022-11-20T01:23:48;101347.41;;;-2.75;82.55
73341;BME280;61578;52.002;5.468;2022-11-20T01:24:21;101345.69;;;-2.80;82.59
73341;BME280;61578;52.002;5.468;2022-11-20T01:24:52;101298.09;;;-3.01;82.29
73341;BME280;61578;52.002;5.468;2022-11-20T01:25:23;101343.09;;;-2.79;82.13
73341;BME280;61578;52.002;5.468;2022-11-20T01:25:53;101346.56;;;-2.77;82.66
73341;BME280;61578;52.002;5.468;2022-11-20T01:26:29;101347.41;;;-2.75;82.43
73341;BME280;61578;52.002;5.468;2022-11-20T01:27:01;101279.94;;;-3.11;82.45
73341;BME280;61578;52.002;5.468;2022-11-20T01:27:32;101345.69;;;-2.79;82.64
73341;BME280;61578;52.002;5.468;2022-11-20T01:28:02;101350.91;;;-2.76;82.17
73341;BME280;61578;52.002;5.468;2022-11-20T01:28:34;101340.47;;;-2.74;82.65
73341;BME280;61578;52.002;5.468;2022-11-20T01:29:06;101343.09;;;-2.77;82.15
73341;BME280;61578;52.002;5.468;2022-11-20T01:29:40;101250.53;;;-3.31;82.08
73341;BME280;61578;52.002;5.468;2022-11-20T01:30:12;101354.34;;;-2.83;82.11
73341;BME280;61578;52.002;5.468;2022-11-20T01:30:42;101348.31;;;-2.77;82.39
73341;BME280;61578;52.002;5.468;2022-11-20T01:31:19;101288.59;;;-3.08;82.85
73341;BME280;61578;52.002;5.468;2022-11-20T01:31:58;101342.25;;;-2.79;82.57
73341;BME280;61578;52.002;5.468;2022-11-20T01:32:29;101351.75;;;-2.74;82.38
73341;BME280;61578;52.002;5.468;2022-11-20T01:32:59;101292.06;;;-3.06;82.69
73341;BME280;61578;52.002;5.468;2022-11-20T01:33:30;101344.81;;;-2.73;82.46
73341;BME280;61578;52.002;5.468;2022-11-20T01:34:03;101351.75;;;-2.72;82.62
73341;BME280;61578;52.002;5.468;2022-11-20T01:34:35;101349.16;;;-2.72;82.39
73341;BME280;61578;52.002;5.468;2022-11-20T01:35:06;101296.38;;;-3.05;82.22
73341;BME280;61578;52.002;5.468;2022-11-20T01:35:37;101343.06;;;-2.74;82.87
73341;BME280;61578;52.002;5.468;2022-11-20T01:36:08;101338.78;;;-2.75;82.85
73341;BME280;61578;52.002;5.468;2022-11-20T01:36:41;101341.34;;;-2.74;82.60
73341;BME280;61578;52.002;5.468;2022-11-20T01:37:12;101341.34;;;-2.74;82.59
73341;BME280;61578;52.002;5.468;2022-11-20T01:37:43;101349.16;;;-2.78;82.92
73341;BME280;61578;52.002;5.468;2022-11-20T01:38:15;101343.97;;;-2.78;82.87
73341;BME280;61578;52.002;5.468;2022-11-20T01:38:46;101337.00;;;-2.75;82.83
73341;BME280;61578;52.002;5.468;2022-11-20T01:39:19;101330.97;;;-2.77;82.50
73341;BME280;61578;52.002;5.468;2022-11-20T01:39:53;101328.38;;;-2.75;82.38
73341;BME280;61578;52.002;5.468;2022-11-20T01:40:24;101337.00;;;-2.75;82.55
73341;BME280;61578;52.002;5.468;2022-11-20T01:40:55;101330.97;;;-2.80;82.71
73341;BME280;61578;52.002;5.468;2022-11-20T01:41:28;101336.19;;;-2.75;83.05
73341;BME280;61578;52.002;5.468;2022-11-20T01:42:18;101320.56;;;-2.84;82.53
73341;BME280;61578;52.002;5.468;2022-11-20T01:43:18;101302.41;;;-3.04;82.73
73341;BME280;61578;52.002;5.468;2022-11-20T01:43:52;101344.81;;;-2.84;82.58
73341;BME280;61578;52.002;5.468;2022-11-20T01:44:47;101342.22;;;-2.81;83.29
73341;BME280;61578;52.002;5.468;2022-11-20T01:46:15;101343.97;;;-2.83;82.46
73341;BME280;61578;52.002;5.468;2022-11-20T01:47:01;101343.97;;;-2.84;82.69
73341;BME280;61578;52.002;5.468;2022-11-20T01:47:39;101340.50;;;-2.85;82.43
73341;BME280;61578;52.002;5.468;2022-11-20T01:48:14;101337.91;;;-2.88;82.06
73341;BME280;61578;52.002;5.468;2022-11-20T01:48:54;101344.84;;;-2.88;82.37
73341;BME280;61578;52.002;5.468;2022-11-20T01:49:55;101343.97;;;-2.89;82.60
73341;BME280;61578;52.002;5.468;2022-11-20T01:50:29;101340.50;;;-2.94;82.70
73341;BME280;61578;52.002;5.468;2022-11-20T01:51:02;101344.84;;;-2.88;82.74
73341;BME280;61578;52.002;5.468;2022-11-20T01:51:50;101336.19;;;-2.89;82.62
73341;BME280;61578;52.002;5.468;2022-11-20T01:52:56;101336.19;;;-2.89;82.71
73341;BME280;61578;52.002;5.468;2022-11-20T01:53:35;101328.38;;;-2.92;82.42
73341;BME280;61578;52.002;5.468;2022-11-20T01:54:14;101318.88;;;-2.98;82.56
73341;BME280;61578;52.002;5.468;2022-11-20T01:55:03;101291.19;;;-3.20;82.81
73341;BME280;61578;52.002;5.468;2022-11-20T01:55:44;101341.38;;;-2.92;83.42
73341;BME280;61578;52.002;5.468;2022-11-20T01:56:21;101330.13;;;-2.94;83.50
73341;BME280;61578;52.002;5.468;2022-11-20T01:56:57;101331.00;;;-2.90;83.00
73341;BME280;61578;52.002;5.468;2022-11-20T01:57:33;101328.38;;;-2.93;83.19
73341;BME280;61578;52.002;5.468;2022-11-20T01:58:06;101326.66;;;-2.94;83.26
73341;BME280;61578;52.002;5.468;2022-11-20T01:58:44;101279.06;;;-3.25;83.26
73341;BME280;61578;52.002;5.468;2022-11-20T01:59:24;101330.13;;;-2.92;83.46
73341;BME280;61578;52.002;5.468;2022-11-20T02:00:07;101331.84;;;-2.93;83.80
73341;BME280;61578;52.002;5.468;2022-11-20T02:00:41;101331.84;;;-2.94;83.48
73341;BME280;61578;52.002;5.468;2022-11-20T02:01:12;101331.88;;;-2.96;82.89
73341;BME280;61578;52.002;5.468;2022-11-20T02:01:45;101334.47;;;-3.01;82.83
73341;BME280;61578;52.002;5.468;2022-11-20T02:02:16;101344.84;;;-3.04;82.51
73341;BME280;61578;52.002;5.468;2022-11-20T02:02:52;101340.53;;;-2.99;82.77
73341;BME280;61578;52.002;5.468;2022-11-20T02:03:28;101344.00;;;-3.00;82.93
73341;BME280;61578;52.002;5.468;2022-11-20T02:04:01;101339.66;;;-3.01;82.86
73341;BME280;61578;52.002;5.468;2022-11-20T02:04:32;101356.09;;;-3.03;82.94
73341;BME280;61578;52.002;5.468;2022-11-20T02:05:16;101333.63;;;-3.09;83.28
73341;BME280;61578;52.002;5.468;2022-11-20T02:06:03;101349.19;;;-3.04;83.01
73341;BME280;61578;52.002;5.468;2022-11-20T02:06:47;101345.72;;;-3.05;83.11
73341;BME280;61578;52.002;5.468;2022-11-20T02:07:23;101349.19;;;-3.06;83.37
73341;BME280;61578;52.002;5.468;2022-11-20T02:07:57;101347.44;;;-3.05;83.53
73341;BME280;61578;52.002;5.468;2022-11-20T02:08:30;101350.06;;;-3.10;83.26
73341;BME280;61578;52.002;5.468;2022-11-20T02:09:01;101356.13;;;-3.06;83.43
73341;BME280;61578;52.002;5.468;2022-11-20T02:09:31;101360.47;;;-3.07;83.50
73341;BME280;61578;52.002;5.468;2022-11-20T02:10:02;101344.00;;;-3.06;83.14
73341;BME280;61578;52.002;5.468;2022-11-20T02:10:33;101339.69;;;-3.07;83.26
73341;BME280;61578;52.002;5.468;2022-11-20T02:11:04;101359.56;;;-3.04;83.42
73341;BME280;61578;52.002;5.468;2022-11-20T02:11:35;101350.91;;;-3.03;83.25
73341;BME280;61578;52.002;5.468;2022-11-20T02:12:06;101342.25;;;-3.10;82.94
73341;BME280;61578;52.002;5.468;2022-11-20T02:12:56;101339.66;;;-3.04;83.40
73341;BME280;61578;52.002;5.468;2022-11-20T02:13:46;101340.53;;;-3.03;83.69
73341;BME280;61578;52.002;5.468;2022-11-20T02:14:20;101336.22;;;-3.07;83.57
73341;BME280;61578;52.002;5.468;2022-11-20T02:14:52;101342.25;;;-3.02;83.16
73341;BME280;61578;52.002;5.468;2022-11-20T02:15:22;101324.94;;;-3.09;83.28
73341;BME280;61578;52.002;5.468;2022-11-20T02:15:53;101326.66;;;-3.04;83.01
73341;BME280;61578;52.002;5.468;2022-11-20T02:16:31;101337.91;;;-3.05;82.74
73341;BME280;61578;52.002;5.468;2022-11-20T02:17:08;101335.34;;;-3.06;82.76
73341;BME280;61578;52.002;5.468;2022-11-20T02:17:38;101283.41;;;-3.34;82.87
73341;BME280;61578;52.002;5.468;2022-11-20T02:18:11;101279.94;;;-3.34;82.84
73341;BME280;61578;52.002;5.468;2022-11-20T02:18:47;101322.34;;;-3.14;83.06
73341;BME280;61578;52.002;5.468;2022-11-20T02:19:25;101331.88;;;-3.11;82.86
73341;BME280;61578;52.002;5.468;2022-11-20T02:19:58;101322.38;;;-3.18;82.86
73341;BME280;61578;52.002;5.468;2022-11-20T02:20:28;101329.28;;;-3.14;83.19
73341;BME280;61578;52.002;5.468;2022-11-20T02:21:07;101327.56;;;-3.18;83.23
73341;BME280;61578;52.002;5.468;2022-11-20T02:22:08;101308.50;;;-3.33;83.06
73341;BME280;61578;52.002;5.468;2022-11-20T02:24:15;101325.81;;;-3.30;83.33
73341;BME280;61578;52.002;5.468;2022-11-20T02:24:50;101331.88;;;-3.25;83.15
73341;BME280;61578;52.002;5.468;2022-11-20T02:25:24;101331.00;;;-3.31;82.76
73341;BME280;61578;52.002;5.468;2022-11-20T02:26:01;101328.44;;;-3.28;83.56
73341;BME280;61578;52.002;5.468;2022-11-20T02:26:59;101322.38;;;-3.29;83.35
73341;BME280;61578;52.002;5.468;2022-11-20T02:27:35;101318.03;;;-3.30;83.48
73341;BME280;61578;52.002;5.468;2022-11-20T02:28:06;101315.44;;;-3.33;83.52
73341;BME280;61578;52.002;5.468;2022-11-20T02:28:37;101322.34;;;-3.30;83.82
73341;BME280;61578;52.002;5.468;2022-11-20T02:29:08;101313.69;;;-3.36;83.77
73341;BME280;61578;52.002;5.468;2022-11-20T02:29:50;101323.22;;;-3.28;83.50
73341;BME280;61578;52.002;5.468;2022-11-20T02:30:24;101316.31;;;-3.28;83.53
73341;BME280;61578;52.002;5.468;2022-11-20T02:30:54;101315.44;;;-3.31;83.77
73341;BME280;61578;52.002;5.468;2022-11-20T02:31:25;101311.13;;;-3.29;83.74
73341;BME280;61578;52.002;5.468;2022-11-20T02:31:58;101317.16;;;-3.29;83.45
73341;BME280;61578;52.002;5.468;2022-11-20T02:32:34;101306.78;;;-3.29;83.49
73341;BME280;61578;52.002;5.468;2022-11-20T02:33:05;101299.88;;;-3.30;83.80
73341;BME280;61578;52.002;5.468;2022-11-20T02:33:36;101305.91;;;-3.31;83.56
73341;BME280;61578;52.002;5.468;2022-11-20T02:34:07;101304.19;;;-3.34;83.75
73341;BME280;61578;52.002;5.468;2022-11-20T02:34:38;101318.91;;;-3.31;83.30
73341;BME280;61578;52.002;5.468;2022-11-20T02:35:50;101307.66;;;-3.38;83.44
73341;BME280;61578;52.002;5.468;2022-11-20T02:36:22;101311.09;;;-3.42;83.31
73341;BME280;61578;52.002;5.468;2022-11-20T02:36:58;101308.53;;;-3.39;83.88
73341;BME280;61578;52.002;5.468;2022-11-20T02:37:32;101315.44;;;-3.38;83.63
73341;BME280;61578;52.002;5.468;2022-11-20T02:38:06;101303.34;;;-3.37;83.75
73341;BME280;61578;52.002;5.468;2022-11-20T02:38:37;101309.38;;;-3.40;83.64
73341;BME280;61578;52.002;5.468;2022-11-20T02:39:10;101300.72;;;-3.39;83.72
73341;BME280;61578;52.002;5.468;2022-11-20T02:39:45;101295.53;;;-3.42;83.72
73341;BME280;61578;52.002;5.468;2022-11-20T02:40:17;101293.81;;;-3.41;83.18
73341;BME280;61578;52.002;5.468;2022-11-20T02:40:48;101311.13;;;-3.39;83.14
73341;BME280;61578;52.002;5.468;2022-11-20T02:41:19;101289.47;;;-3.45;83.35
73341;BME280;61578;52.002;5.468;2022-11-20T02:41:53;101294.66;;;-3.41;83.08
73341;BME280;61578;52.002;5.468;2022-11-20T02:42:24;101291.19;;;-3.44;83.22
73341;BME280;61578;52.002;5.468;2022-11-20T02:42:56;101290.31;;;-3.45;83.24
73341;BME280;61578;52.002;5.468;2022-11-20T02:43:27;101296.38;;;-3.46;83.66
73341;BME280;61578;52.002;5.468;2022-11-20T02:43:58;101298.13;;;-3.43;84.16
73341;BME280;61578;52.002;5.468;2022-11-20T02:44:28;101294.66;;;-3.45;83.74
73341;BME280;61578;52.002;5.468;2022-11-20T02:44:59;101254.00;;;-3.71;84.07
73341;BME280;61578;52.002;5.468;2022-11-20T02:45:29;101298.13;;;-3.42;84.08
73341;BME280;61578;52.002;5.468;2022-11-20T02:46:00;101299.84;;;-3.42;83.70
73341;BME280;61578;52.002;5.468;2022-11-20T02:46:31;101310.25;;;-3.42;83.48
73341;BME280;61578;52.002;5.468;2022-11-20T02:47:02;101298.13;;;-3.43;83.54
73341;BME280;61578;52.002;5.468;2022-11-20T02:47:33;101303.31;;;-3.43;84.15
73341;BME280;61578;52.002;5.468;2022-11-20T02:48:06;101296.38;;;-3.46;83.97
73341;BME280;61578;52.002;5.468;2022-11-20T02:48:37;101303.31;;;-3.42;83.88
73341;BME280;61578;52.002;5.468;2022-11-20T02:49:08;101298.13;;;-3.45;83.59
73341;BME280;61578;52.002;5.468;2022-11-20T02:49:38;101303.31;;;-3.45;83.67
73341;BME280;61578;52.002;5.468;2022-11-20T02:50:09;101315.44;;;-3.44;83.85
73341;BME280;61578;52.002;5.468;2022-11-20T02:50:40;101306.78;;;-3.44;83.95
73341;BME280;61578;52.002;5.468;2022-11-20T02:51:10;101305.03;;;-3.42;84.01
73341;BME280;61578;52.002;5.468;2022-11-20T02:51:41;101318.88;;;-3.43;84.48
73341;BME280;61578;52.002;5.468;2022-11-20T02:52:11;101280.81;;;-3.61;84.27
73341;BME280;61578;52.002;5.468;2022-11-20T02:52:42;101311.13;;;-3.46;83.95
73341;BME280;61578;52.002;5.468;2022-11-20T02:53:13;101315.44;;;-3.48;83.73
73341;BME280;61578;52.002;5.468;2022-11-20T02:53:44;101299.84;;;-3.51;84.19
73341;BME280;61578;52.002;5.468;2022-11-20T02:54:14;101308.53;;;-3.48;83.82
73341;BME280;61578;52.002;5.468;2022-11-20T02:54:44;101308.53;;;-3.46;83.88
73341;BME280;61578;52.002;5.468;2022-11-20T02:55:15;101245.34;;;-3.82;84.45
73341;BME280;61578;52.002;5.468;2022-11-20T02:55:46;101271.31;;;-3.68;84.42
73341;BME280;61578;52.002;5.468;2022-11-20T02:56:16;101307.66;;;-3.48;84.70
73341;BME280;61578;52.002;5.468;2022-11-20T02:56:47;101312.84;;;-3.47;84.33
73341;BME280;61578;52.002;5.468;2022-11-20T02:57:17;101305.91;;;-3.43;84.22
73341;BME280;61578;52.002;5.468;2022-11-20T02:57:48;101305.03;;;-3.45;84.45